sensor_id;sensor_type;location;lat;lon;timestamp;P1;durP1;ratioP1;P2;durP2;ratioP2
24995;SDS011;13016;52.162;21.034;2023-09-18T00:04:18;7.30;;;5.80;;
24995;SDS011;13016;52.162;21.034;2023-09-18T00:10:22;7.70;;;6.30;;
24995;SDS011;13016;52.162;21.034;2023-09-18T00:16:25;9.40;;;6.80;;
24995;SDS011;13016;52.162;21.034;2023-09-18T00:22:26;7.70;;;6.00;;
24995;SDS011;13016;52.162;21.034;2023-09-18T00:28:26;8.20;;;6.00;;
24995;SDS011;13016;52.162;21.034;2023-09-18T00:34:26;8.20;;;5.60;;
24995;SDS011;13016;52.162;21.034;2023-09-18T00:40:27;6.70;;;5.70;;
24995;SDS011;13016;52.162;21.034;2023-09-18T00:46:27;9.60;;;6.40;;
24995;SDS011;13016;52.162;21.034;2023-09-18T00:52:30;7.00;;;5.50;;
24995;SDS011;13016;52.162;21.034;2023-09-18T00:58:32;6.50;;;5.70;;
24995;SDS011;13016;52.162;21.034;2023-09-18T01:04:33;7.40;;;5.80;;
24995;SDS011;13016;52.162;21.034;2023-09-18T01:10:35;8.50;;;5.70;;
24995;SDS011;13016;52.162;21.034;2023-09-18T01:16:42;10.00;;;5.60;;
24995;SDS011;13016;52.162;21.034;2023-09-18T01:22:48;8.20;;;5.80;;
24995;SDS011;13016;52.162;21.034;2023-09-18T01:28:48;8.50;;;6.10;;
24995;SDS011;13016;52.162;21.034;2023-09-18T01:34:49;7.50;;;6.30;;
24995;SDS011;13016;52.162;21.034;2023-09-18T01:40:52;8.20;;;5.80;;
24995;SDS011;13016;52.162;21.034;2023-09-18T01:46:53;8.90;;;6.60;;
24995;SDS011;13016;52.162;21.034;2023-09-18T01:52:56;10.10;;;6.40;;
24995;SDS011;13016;52.162;21.034;2023-09-18T01:58:58;8.40;;;6.60;;
24995;SDS011;13016;52.162;21.034;2023-09-18T02:04:58;9.90;;;6.70;;
24995;SDS011;13016;52.162;21.034;2023-09-18T02:10:59;7.90;;;6.70;;
24995;SDS011;13016;52.162;21.034;2023-09-18T02:16:59;10.50;;;7.30;;
24995;SDS011;13016;52.162;21.034;2023-09-18T02:22:59;7.50;;;6.40;;
24995;SDS011;13016;52.162;21.034;2023-09-18T02:29:00;7.60;;;6.70;;
24995;SDS011;13016;52.162;21.034;2023-09-18T02:35:03;9.70;;;7.40;;
24995;SDS011;13016;52.162;21.034;2023-09-18T02:41:04;10.40;;;8.70;;
24995;SDS011;13016;52.162;21.034;2023-09-18T02:47:05;10.60;;;8.80;;
24995;SDS011;13016;52.162;21.034;2023-09-18T02:53:06;12.80;;;9.10;;
24995;SDS011;13016;52.162;21.034;2023-09-18T02:59:08;10.30;;;8.60;;
24995;SDS011;13016;52.162;21.034;2023-09-18T03:05:08;10.50;;;8.70;;
24995;SDS011;13016;52.162;21.034;2023-09-18T03:11:12;11.60;;;8.70;;
24995;SDS011;13016;52.162;21.034;2023-09-18T03:17:13;11.20;;;9.00;;
24995;SDS011;13016;52.162;21.034;2023-09-18T03:23:14;10.40;;;8.50;;
24995;SDS011;13016;52.162;21.034;2023-09-18T03:29:14;11.50;;;8.60;;
24995;SDS011;13016;52.162;21.034;2023-09-18T03:35:14;11.10;;;8.70;;
24995;SDS011;13016;52.162;21.034;2023-09-18T03:41:15;10.30;;;8.90;;
24995;SDS011;13016;52.162;21.034;2023-09-18T03:47:15;10.90;;;9.10;;
24995;SDS011;13016;52.162;21.034;2023-09-18T03:53:15;10.80;;;9.30;;
24995;SDS011;13016;52.162;21.034;2023-09-18T03:59:16;16.70;;;10.20;;
24995;SDS011;13016;52.162;21.034;2023-09-18T04:05:16;10.00;;;8.60;;
24995;SDS011;13016;52.162;21.034;2023-09-18T04:11:19;11.50;;;9.00;;
24995;SDS011;13016;52.162;21.034;2023-09-18T04:17:20;13.80;;;9.40;;
24995;SDS011;13016;52.162;21.034;2023-09-18T04:30:18;10.20;;;9.10;;
24995;SDS011;13016;52.162;21.034;2023-09-18T05:02:28;14.40;;;9.30;;
24995;SDS011;13016;52.162;21.034;2023-09-18T05:08:28;12.70;;;9.10;;
24995;SDS011;13016;52.162;21.034;2023-09-18T05:14:38;14.20;;;9.40;;
24995;SDS011;13016;52.162;21.034;2023-09-18T11:07:21;7.00;;;4.50;;
24995;SDS011;13016;52.162;21.034;2023-09-18T11:20:05;5.70;;;5.00;;
24995;SDS011;13016;52.162;21.034;2023-09-18T11:26:09;5.20;;;4.60;;
24995;SDS011;13016;52.162;21.034;2023-09-18T11:32:15;5.90;;;5.30;;
24995;SDS011;13016;52.162;21.034;2023-09-18T11:44:51;5.90;;;5.30;;
24995;SDS011;13016;52.162;21.034;2023-09-18T11:50:52;8.70;;;5.50;;
24995;SDS011;13016;52.162;21.034;2023-09-18T11:56:53;8.30;;;5.30;;
24995;SDS011;13016;52.162;21.034;2023-09-18T12:16:01;7.10;;;5.60;;
24995;SDS011;13016;52.162;21.034;2023-09-18T12:22:03;8.00;;;5.90;;
24995;SDS011;13016;52.162;21.034;2023-09-18T12:28:22;6.60;;;6.00;;
24995;SDS011;13016;52.162;21.034;2023-09-18T12:34:43;7.70;;;5.80;;
24995;SDS011;13016;52.162;21.034;2023-09-18T13:48:04;8.00;;;6.80;;
24995;SDS011;13016;52.162;21.034;2023-09-18T13:54:06;7.40;;;5.60;;
24995;SDS011;13016;52.162;21.034;2023-09-18T14:06:07;8.70;;;5.50;;
24995;SDS011;13016;52.162;21.034;2023-09-18T14:12:07;8.30;;;5.30;;
24995;SDS011;13016;52.162;21.034;2023-09-18T14:24:08;6.20;;;5.50;;
24995;SDS011;13016;52.162;21.034;2023-09-18T14:30:09;6.10;;;5.50;;
24995;SDS011;13016;52.162;21.034;2023-09-18T14:36:10;7.20;;;6.30;;
24995;SDS011;13016;52.162;21.034;2023-09-18T14:42:10;12.80;;;8.20;;
24995;SDS011;13016;52.162;21.034;2023-09-18T14:48:10;16.10;;;8.50;;
24995;SDS011;13016;52.162;21.034;2023-09-18T14:54:10;19.70;;;9.70;;
24995;SDS011;13016;52.162;21.034;2023-09-18T15:00:11;13.00;;;8.20;;
24995;SDS011;13016;52.162;21.034;2023-09-18T15:06:12;11.10;;;6.40;;
24995;SDS011;13016;52.162;21.034;2023-09-18T15:12:12;7.90;;;6.30;;
24995;SDS011;13016;52.162;21.034;2023-09-18T15:18:13;10.20;;;6.10;;
24995;SDS011;13016;52.162;21.034;2023-09-18T15:24:13;10.90;;;7.30;;
24995;SDS011;13016;52.162;21.034;2023-09-18T16:09:41;9.40;;;8.50;;
24995;SDS011;13016;52.162;21.034;2023-09-18T16:15:41;9.60;;;8.50;;
24995;SDS011;13016;52.162;21.034;2023-09-18T16:21:41;12.40;;;8.80;;
24995;SDS011;13016;52.162;21.034;2023-09-18T16:27:41;13.30;;;9.10;;
24995;SDS011;13016;52.162;21.034;2023-09-18T16:33:42;10.40;;;9.10;;
24995;SDS011;13016;52.162;21.034;2023-09-18T16:39:42;11.30;;;9.40;;
24995;SDS011;13016;52.162;21.034;2023-09-18T16:45:42;12.60;;;9.30;;
24995;SDS011;13016;52.162;21.034;2023-09-18T16:51:42;14.30;;;10.20;;
24995;SDS011;13016;52.162;21.034;2023-09-18T16:57:43;13.90;;;9.70;;
24995;SDS011;13016;52.162;21.034;2023-09-18T17:03:43;13.10;;;10.00;;
24995;SDS011;13016;52.162;21.034;2023-09-18T17:09:43;14.50;;;11.50;;
24995;SDS011;13016;52.162;21.034;2023-09-18T17:15:44;13.40;;;9.90;;
24995;SDS011;13016;52.162;21.034;2023-09-18T17:21:44;12.10;;;9.70;;
24995;SDS011;13016;52.162;21.034;2023-09-18T17:27:44;13.30;;;9.70;;
24995;SDS011;13016;52.162;21.034;2023-09-18T17:33:44;18.00;;;10.30;;
24995;SDS011;13016;52.162;21.034;2023-09-18T17:39:45;12.10;;;10.00;;
24995;SDS011;13016;52.162;21.034;2023-09-18T17:45:45;10.70;;;9.60;;
24995;SDS011;13016;52.162;21.034;2023-09-18T17:51:45;14.70;;;10.30;;
24995;SDS011;13016;52.162;21.034;2023-09-18T17:57:46;14.10;;;9.60;;
24995;SDS011;13016;52.162;21.034;2023-09-18T18:03:46;13.30;;;10.80;;
24995;SDS011;13016;52.162;21.034;2023-09-18T18:09:46;15.00;;;10.60;;
24995;SDS011;13016;52.162;21.034;2023-09-18T18:15:48;11.20;;;10.00;;
24995;SDS011;13016;52.162;21.034;2023-09-18T18:21:49;11.00;;;9.70;;
24995;SDS011;13016;52.162;21.034;2023-09-18T18:27:49;19.10;;;9.70;;
24995;SDS011;13016;52.162;21.034;2023-09-18T18:33:49;15.20;;;9.90;;
24995;SDS011;13016;52.162;21.034;2023-09-18T18:39:49;14.70;;;9.80;;
24995;SDS011;13016;52.162;21.034;2023-09-18T18:45:50;15.30;;;10.30;;
24995;SDS011;13016;52.162;21.034;2023-09-18T18:51:51;13.90;;;10.20;;
24995;SDS011;13016;52.162;21.034;2023-09-18T18:57:52;13.00;;;10.00;;
24995;SDS011;13016;52.162;21.034;2023-09-18T19:03:52;16.40;;;9.60;;
24995;SDS011;13016;52.162;21.034;2023-09-18T19:09:53;12.90;;;9.60;;
24995;SDS011;13016;52.162;21.034;2023-09-18T19:15:55;11.80;;;8.60;;
24995;SDS011;13016;52.162;21.034;2023-09-18T19:21:55;12.90;;;9.20;;
24995;SDS011;13016;52.162;21.034;2023-09-18T19:27:55;15.80;;;8.80;;
24995;SDS011;13016;52.162;21.034;2023-09-18T19:33:55;11.80;;;8.70;;
24995;SDS011;13016;52.162;21.034;2023-09-18T19:39:56;10.80;;;8.80;;
24995;SDS011;13016;52.162;21.034;2023-09-18T19:51:57;21.60;;;14.70;;
24995;SDS011;13016;52.162;21.034;2023-09-18T19:57:58;9.50;;;8.00;;
24995;SDS011;13016;52.162;21.034;2023-09-18T20:03:59;13.00;;;8.70;;
24995;SDS011;13016;52.162;21.034;2023-09-18T20:16:00;11.80;;;8.70;;
24995;SDS011;13016;52.162;21.034;2023-09-18T20:22:00;10.80;;;8.10;;
24995;SDS011;13016;52.162;21.034;2023-09-18T20:28:00;12.50;;;8.20;;
24995;SDS011;13016;52.162;21.034;2023-09-18T20:34:01;11.70;;;8.50;;
24995;SDS011;13016;52.162;21.034;2023-09-18T20:40:01;10.60;;;8.70;;
24995;SDS011;13016;52.162;21.034;2023-09-18T20:46:01;9.40;;;8.40;;
24995;SDS011;13016;52.162;21.034;2023-09-18T20:52:01;23.10;;;18.80;;
24995;SDS011;13016;52.162;21.034;2023-09-18T20:58:02;9.50;;;8.00;;
24995;SDS011;13016;52.162;21.034;2023-09-18T21:04:02;9.80;;;7.80;;
24995;SDS011;13016;52.162;21.034;2023-09-18T21:10:03;9.70;;;8.70;;
24995;SDS011;13016;52.162;21.034;2023-09-18T21:16:03;10.80;;;7.90;;
24995;SDS011;13016;52.162;21.034;2023-09-18T21:22:04;11.80;;;8.50;;
24995;SDS011;13016;52.162;21.034;2023-09-18T21:28:04;14.20;;;9.00;;
24995;SDS011;13016;52.162;21.034;2023-09-18T21:34:04;15.00;;;9.00;;
24995;SDS011;13016;52.162;21.034;2023-09-18T21:40:05;9.70;;;8.00;;
24995;SDS011;13016;52.162;21.034;2023-09-18T21:52:06;13.50;;;8.50;;
24995;SDS011;13016;52.162;21.034;2023-09-18T21:58:06;13.20;;;8.50;;
24995;SDS011;13016;52.162;21.034;2023-09-18T22:04:06;14.10;;;9.10;;
24995;SDS011;13016;52.162;21.034;2023-09-18T22:10:07;12.70;;;8.20;;
24995;SDS011;13016;52.162;21.034;2023-09-18T22:16:07;13.40;;;8.70;;
24995;SDS011;13016;52.162;21.034;2023-09-18T22:22:07;9.50;;;8.00;;
24995;SDS011;13016;52.162;21.034;2023-09-18T22:28:08;9.60;;;7.80;;
24995;SDS011;13016;52.162;21.034;2023-09-18T22:34:08;11.50;;;8.10;;
24995;SDS011;13016;52.162;21.034;2023-09-18T22:58:47;12.10;;;9.50;;
24995;SDS011;13016;52.162;21.034;2023-09-18T23:04:47;11.60;;;9.00;;
24995;SDS011;13016;52.162;21.034;2023-09-18T23:10:47;10.60;;;8.60;;
24995;SDS011;13016;52.162;21.034;2023-09-18T23:16:47;11.90;;;8.60;;
24995;SDS011;13016;52.162;21.034;2023-09-18T23:22:47;11.60;;;9.30;;
24995;SDS011;13016;52.162;21.034;2023-09-18T23:28:48;11.70;;;8.80;;
24995;SDS011;13016;52.162;21.034;2023-09-18T23:34:48;11.40;;;8.90;;
24995;SDS011;13016;52.162;21.034;2023-09-18T23:40:48;12.20;;;9.40;;
24995;SDS011;13016;52.162;21.034;2023-09-18T23:46:48;14.30;;;9.10;;
24995;SDS011;13016;52.162;21.034;2023-09-18T23:52:48;16.10;;;10.30;;
24995;SDS011;13016;52.162;21.034;2023-09-18T23:58:49;13.20;;;9.70;;
